Aviation Digital Data Service (ADDS)

Output produced by TAFs form (1011 UTC 04 December 2016)
found at http://www.aviationweather.gov/adds/tafs/
 
KSBY 040542Z 0406/0506 28005KT P6SM OVC050